createdAt,value
2019-03-23T00:01:36.628Z,8.57
2019-03-23T00:04:03.825Z,8.90
2019-03-23T00:06:31.209Z,8.80
2019-03-23T00:08:58.446Z,7.93
2019-03-23T00:11:25.491Z,8.10
2019-03-23T00:13:52.548Z,7.70
2019-03-23T00:16:19.579Z,8.63
2019-03-23T00:18:46.627Z,7.73
2019-03-23T00:21:13.682Z,7.93
2019-03-23T00:23:40.765Z,6.87
2019-03-23T00:26:08.068Z,6.00
2019-03-23T00:28:35.127Z,6.27
2019-03-23T00:31:02.863Z,6.47
2019-03-23T00:33:29.959Z,6.90
2019-03-23T00:35:57.113Z,6.30
2019-03-23T00:38:24.151Z,6.60
2019-03-23T00:40:52.931Z,6.17
2019-03-23T00:43:20.027Z,5.37
2019-03-23T00:45:47.024Z,6.53
2019-03-23T00:48:15.189Z,6.77
2019-03-23T00:50:42.638Z,6.57
2019-03-23T00:53:09.677Z,7.17
2019-03-23T00:55:36.801Z,7.20
2019-03-23T00:58:04.038Z,7.17
2019-03-23T01:00:31.204Z,7.13
2019-03-23T01:02:58.254Z,6.67
2019-03-23T01:05:25.380Z,7.07
2019-03-23T01:07:52.576Z,7.57
2019-03-23T01:10:20.121Z,6.30
2019-03-23T01:12:47.334Z,7.50
2019-03-23T01:15:14.487Z,7.20
2019-03-23T01:17:41.518Z,7.37
2019-03-23T01:20:09.222Z,6.70
2019-03-23T01:22:37.449Z,7.23
2019-03-23T01:25:04.918Z,6.43
2019-03-23T01:27:32.270Z,7.23
2019-03-23T01:29:59.355Z,6.47
2019-03-23T01:32:26.477Z,6.23
2019-03-23T01:34:53.548Z,7.00
2019-03-23T01:37:20.970Z,6.20
2019-03-23T01:39:48.803Z,6.37
2019-03-23T01:42:16.689Z,6.37
2019-03-23T01:44:43.996Z,6.53
2019-03-23T01:47:11.066Z,7.13
2019-03-23T01:49:38.218Z,6.50
2019-03-23T01:52:05.274Z,5.67
2019-03-23T01:54:32.333Z,6.17
2019-03-23T01:56:59.392Z,6.83
2019-03-23T01:59:26.420Z,6.93
2019-03-23T02:01:53.485Z,6.80
2019-03-23T02:04:20.546Z,7.33
2019-03-23T02:06:47.639Z,6.10
2019-03-23T02:09:14.928Z,7.13
2019-03-23T02:11:42.015Z,7.20
2019-03-23T02:14:09.052Z,7.53
2019-03-23T02:16:36.138Z,7.23
2019-03-23T02:19:03.258Z,8.10
2019-03-23T02:21:30.661Z,7.83
2019-03-23T02:23:58.247Z,8.30
2019-03-23T02:26:25.572Z,7.53
2019-03-23T02:28:52.651Z,7.33
2019-03-23T02:31:20.778Z,6.57
2019-03-23T02:33:47.842Z,7.47
2019-03-23T02:36:15.122Z,6.80
2019-03-23T02:38:42.189Z,6.43
2019-03-23T02:41:09.224Z,6.67
2019-03-23T02:43:36.623Z,6.23
2019-03-23T02:46:03.786Z,5.60
2019-03-23T02:48:31.064Z,7.40
2019-03-23T02:50:58.119Z,5.80
2019-03-23T02:53:25.295Z,6.73
2019-03-23T02:55:52.545Z,6.70
2019-03-23T02:58:19.964Z,6.30
2019-03-23T03:00:47.413Z,6.47
2019-03-23T03:03:14.484Z,6.07
2019-03-23T03:05:41.635Z,6.47
2019-03-23T03:08:08.708Z,6.60
2019-03-23T03:10:37.969Z,6.10
2019-03-23T03:13:06.190Z,6.13
2019-03-23T03:15:33.247Z,5.50
2019-03-23T03:18:00.253Z,6.27
2019-03-23T03:20:27.709Z,5.67
2019-03-23T03:22:54.739Z,5.53
2019-03-23T03:25:21.804Z,5.93
2019-03-23T03:27:48.828Z,5.63
2019-03-23T03:30:16.091Z,5.70
2019-03-23T03:32:43.146Z,5.57
2019-03-23T03:35:10.564Z,5.73
2019-03-23T03:37:37.748Z,5.53
2019-03-23T03:40:05.289Z,5.70
2019-03-23T03:42:32.339Z,5.63
2019-03-23T03:44:59.373Z,5.23
2019-03-23T03:47:27.033Z,4.70
2019-03-23T03:49:54.036Z,4.73
2019-03-23T03:52:21.063Z,4.73
2019-03-23T03:54:50.363Z,4.53
2019-03-23T03:57:17.401Z,4.70
2019-03-23T03:59:44.451Z,4.57
2019-03-23T04:02:11.507Z,4.70
2019-03-23T04:04:38.535Z,4.63
2019-03-23T04:07:06.625Z,4.90
2019-03-23T04:09:33.691Z,4.80
2019-03-23T04:12:00.933Z,5.20
2019-03-23T04:14:28.295Z,4.83
2019-03-23T04:16:55.345Z,4.27
2019-03-23T04:19:22.380Z,5.27
2019-03-23T04:21:49.428Z,5.10
2019-03-23T04:24:17.593Z,5.23
2019-03-23T04:26:44.642Z,5.40
2019-03-23T04:29:11.994Z,5.90
2019-03-23T04:31:39.021Z,5.00
2019-03-23T04:34:06.163Z,5.27
2019-03-23T04:36:33.225Z,5.27
2019-03-23T04:39:00.275Z,5.23
2019-03-23T04:41:27.336Z,5.20
2019-03-23T04:43:54.640Z,5.93
2019-03-23T04:46:21.720Z,6.10
2019-03-23T04:48:48.899Z,5.40
2019-03-23T04:51:19.237Z,5.97
2019-03-23T04:53:46.301Z,5.90
2019-03-23T04:56:14.752Z,5.37
2019-03-23T04:58:41.872Z,5.30
2019-03-23T05:01:08.970Z,4.10
2019-03-23T05:03:36.320Z,4.37
2019-03-23T05:06:03.567Z,4.33
2019-03-23T05:08:33.668Z,5.00
2019-03-23T05:10:59.884Z,4.53
2019-03-23T05:13:27.934Z,4.63
2019-03-23T05:15:55.689Z,4.50
2019-03-23T05:18:22.962Z,4.63
2019-03-23T05:20:50.250Z,5.57
2019-03-23T05:23:18.595Z,5.83
2019-03-23T05:25:45.871Z,5.47
2019-03-23T05:28:13.003Z,5.33
2019-03-23T05:30:40.350Z,5.80
2019-03-23T05:33:07.663Z,5.87
2019-03-23T05:35:34.754Z,6.17
2019-03-23T05:38:01.988Z,7.03
2019-03-23T05:40:29.084Z,6.10
2019-03-23T05:42:56.255Z,5.43
2019-03-23T05:45:23.365Z,5.10
2019-03-23T05:47:53.226Z,4.93
2019-03-23T05:50:20.738Z,5.30
2019-03-23T05:52:47.896Z,5.40
2019-03-23T05:55:15.975Z,4.90
2019-03-23T05:57:43.017Z,5.17
2019-03-23T06:00:14.405Z,5.10
2019-03-23T06:02:41.498Z,4.80
2019-03-23T06:05:08.671Z,4.60
2019-03-23T06:07:35.702Z,5.63
2019-03-23T06:10:03.905Z,4.90
2019-03-23T06:12:30.907Z,5.37
2019-03-23T06:14:57.983Z,4.57
2019-03-23T06:17:25.052Z,5.40
2019-03-23T06:19:52.066Z,4.77
2019-03-23T06:22:19.334Z,5.10
2019-03-23T06:24:46.872Z,4.80
2019-03-23T06:27:14.317Z,4.57
2019-03-23T06:29:43.603Z,4.60
2019-03-23T06:32:10.860Z,4.93
2019-03-23T06:34:37.957Z,5.20
2019-03-23T06:37:05.032Z,4.50
2019-03-23T06:39:32.328Z,4.60
2019-03-23T06:41:59.860Z,5.00
2019-03-23T06:44:26.941Z,4.33
2019-03-23T06:46:53.989Z,4.67
2019-03-23T06:49:21.080Z,4.97
2019-03-23T06:51:48.174Z,4.60
2019-03-23T06:54:15.605Z,5.23
2019-03-23T06:56:42.662Z,5.63
2019-03-23T06:59:09.712Z,5.70
2019-03-23T07:01:36.771Z,5.70
2019-03-23T07:04:04.037Z,5.80
2019-03-23T07:06:31.877Z,6.40
2019-03-23T07:08:58.992Z,5.90
2019-03-23T07:11:26.411Z,6.23
2019-03-23T07:13:53.483Z,6.87
2019-03-23T07:16:20.593Z,6.07
2019-03-23T07:18:47.628Z,6.37
2019-03-23T07:21:14.772Z,6.27
2019-03-23T07:23:42.063Z,6.30
2019-03-23T07:26:09.180Z,5.60
2019-03-23T07:28:36.263Z,5.17
2019-03-23T07:31:03.765Z,5.53
2019-03-23T07:33:30.823Z,5.40
2019-03-23T07:35:57.931Z,4.47
2019-03-23T07:38:24.998Z,5.33
2019-03-23T07:40:52.419Z,4.90
2019-03-23T07:43:19.503Z,5.53
2019-03-23T07:45:47.627Z,5.00
2019-03-23T07:48:15.051Z,4.93
2019-03-23T07:50:42.165Z,4.63
2019-03-23T07:53:11.320Z,4.10
2019-03-23T07:55:38.360Z,5.23
2019-03-23T07:58:05.421Z,4.60
2019-03-23T08:00:32.634Z,4.80
2019-03-23T08:02:59.660Z,5.00
2019-03-23T08:05:27.796Z,4.77
2019-03-23T08:07:55.154Z,5.27
2019-03-23T08:10:31.828Z,5.43
2019-03-23T08:12:59.054Z,5.90
2019-03-23T08:15:26.150Z,5.77
2019-03-23T08:17:59.023Z,6.00
2019-03-23T08:20:26.179Z,7.33
2019-03-23T08:22:53.833Z,7.30
2019-03-23T08:25:20.844Z,7.80
2019-03-23T08:27:47.914Z,7.93
2019-03-23T08:30:15.648Z,8.37
2019-03-23T08:32:42.720Z,7.70
2019-03-23T08:35:10.478Z,7.23
2019-03-23T08:37:37.544Z,7.37
2019-03-23T08:40:05.718Z,6.27
2019-03-23T08:42:34.949Z,6.67
2019-03-23T08:45:02.834Z,6.43
2019-03-23T08:47:30.762Z,6.27
2019-03-23T08:50:00.067Z,6.10
2019-03-23T08:52:28.979Z,5.83
2019-03-23T08:54:57.496Z,5.77
2019-03-23T08:57:26.894Z,5.97
2019-03-23T08:59:54.042Z,5.10
2019-03-23T09:02:21.931Z,5.33
2019-03-23T09:04:49.126Z,4.87
2019-03-23T09:07:16.461Z,5.37
2019-03-23T09:09:44.303Z,5.30
2019-03-23T09:12:12.184Z,5.27
2019-03-23T09:14:39.306Z,5.63
2019-03-23T09:17:06.723Z,5.70
2019-03-23T09:19:34.511Z,6.23
2019-03-23T09:22:01.825Z,6.47
2019-03-23T09:24:29.243Z,6.93
2019-03-23T09:26:58.380Z,7.13
2019-03-23T09:29:25.658Z,6.53
2019-03-23T09:32:28.530Z,7.77
2019-03-23T09:34:56.166Z,8.00
2019-03-23T09:37:23.933Z,8.50
2019-03-23T09:39:51.092Z,8.10
2019-03-23T09:42:18.399Z,8.63
2019-03-23T09:44:45.525Z,8.37
2019-03-23T09:47:14.093Z,8.27
2019-03-23T09:49:41.883Z,9.53
2019-03-23T09:52:09.189Z,9.30
2019-03-23T09:54:36.845Z,10.70
2019-03-23T09:57:04.951Z,9.00
2019-03-23T09:59:33.159Z,9.87
2019-03-23T10:02:02.906Z,10.50
2019-03-23T10:04:31.093Z,10.53
2019-03-23T10:06:58.775Z,10.90
2019-03-23T10:09:26.166Z,11.73
2019-03-23T10:11:53.522Z,11.57
2019-03-23T10:14:21.108Z,11.43
2019-03-23T10:16:51.972Z,12.30
2019-03-23T10:19:20.329Z,11.23
2019-03-23T10:22:01.647Z,11.90
2019-03-23T10:24:30.788Z,12.03
2019-03-23T10:26:58.029Z,11.90
2019-03-23T10:29:25.353Z,12.67
2019-03-23T10:32:01.173Z,13.00
2019-03-23T10:34:30.024Z,11.87
2019-03-23T10:37:07.880Z,13.25
2019-03-23T10:39:36.169Z,12.40
2019-03-23T10:42:06.889Z,13.37
2019-03-23T10:44:36.398Z,12.53
2019-03-23T10:47:04.138Z,12.18
2019-03-23T10:49:31.496Z,13.20
2019-03-23T10:51:59.190Z,13.30
2019-03-23T10:54:26.583Z,13.85
2019-03-23T10:56:54.658Z,13.90
2019-03-23T10:59:22.447Z,12.07
2019-03-23T11:01:54.514Z,13.90
2019-03-23T11:04:25.342Z,14.13
2019-03-23T11:07:00.109Z,14.15
2019-03-23T11:09:38.528Z,14.30
2019-03-23T11:12:06.607Z,14.95
2019-03-23T11:14:33.776Z,14.83
2019-03-23T11:17:01.242Z,14.50
2019-03-23T11:19:29.817Z,14.40
2019-03-23T11:22:00.363Z,14.90
2019-03-23T11:24:27.909Z,14.47
2019-03-23T11:26:55.797Z,13.60
2019-03-23T11:29:23.008Z,14.28
2019-03-23T11:31:50.276Z,15.45
2019-03-23T11:34:20.569Z,15.40
2019-03-23T11:36:48.212Z,14.83
2019-03-23T11:39:15.485Z,16.32
2019-03-23T11:41:42.781Z,15.43
2019-03-23T11:44:17.547Z,15.15
2019-03-23T11:46:55.193Z,16.05
2019-03-23T11:49:22.259Z,13.58
2019-03-23T11:51:49.466Z,15.50
2019-03-23T11:54:17.766Z,13.70
2019-03-23T11:56:45.550Z,14.30
2019-03-23T11:59:18.766Z,13.58
2019-03-23T12:01:52.067Z,16.25
2019-03-23T12:04:18.988Z,13.53
2019-03-23T12:06:46.339Z,13.85
2019-03-23T12:09:13.618Z,13.35
2019-03-23T12:11:40.860Z,14.00
2019-03-23T12:14:08.078Z,14.43
2019-03-23T12:16:35.657Z,14.60
2019-03-23T12:19:05.008Z,14.03
2019-03-23T12:21:32.268Z,15.23
2019-03-23T12:23:59.973Z,16.27
2019-03-23T12:26:27.215Z,15.95
2019-03-23T12:28:56.940Z,14.75
2019-03-23T12:31:26.427Z,17.52
2019-03-23T12:33:53.572Z,15.40
2019-03-23T12:36:22.623Z,16.25
2019-03-23T12:38:50.139Z,16.60
2019-03-23T12:41:23.041Z,16.55
2019-03-23T12:43:47.143Z,16.93
2019-03-23T12:46:14.625Z,18.52
2019-03-23T12:48:41.911Z,18.37
2019-03-23T12:51:20.940Z,16.65
2019-03-23T12:53:48.517Z,17.17
2019-03-23T12:56:19.243Z,18.03
2019-03-23T12:58:47.256Z,18.63
2019-03-23T13:01:14.773Z,18.45
2019-03-23T13:03:42.095Z,18.07
2019-03-23T13:06:09.665Z,18.87
2019-03-23T13:08:38.581Z,17.30
2019-03-23T13:11:10.008Z,18.57
2019-03-23T13:13:39.769Z,17.43
2019-03-23T13:16:08.556Z,16.90
2019-03-23T13:18:37.687Z,16.67
2019-03-23T13:21:06.321Z,17.30
2019-03-23T13:23:34.322Z,17.50
2019-03-23T13:26:03.104Z,17.83
2019-03-23T13:28:33.407Z,18.63
2019-03-23T13:31:03.581Z,18.17
2019-03-23T13:33:31.358Z,18.37
2019-03-23T13:36:00.108Z,19.30
2019-03-23T13:38:29.660Z,18.20
2019-03-23T13:40:57.364Z,19.50
2019-03-23T13:43:25.267Z,20.33
2019-03-23T13:45:52.780Z,20.30
2019-03-23T13:48:20.107Z,20.43
2019-03-23T13:50:49.487Z,20.53
2019-03-23T13:53:19.769Z,19.97
2019-03-23T13:55:47.953Z,21.20
2019-03-23T13:58:16.393Z,19.50
2019-03-23T14:00:44.167Z,19.50
2019-03-23T14:03:12.670Z,17.70
2019-03-23T14:05:40.184Z,19.10
2019-03-23T14:08:08.964Z,18.57
2019-03-23T14:10:38.614Z,20.53
2019-03-23T14:13:06.643Z,21.20
2019-03-23T14:15:34.721Z,21.00
2019-03-23T14:18:02.786Z,20.93
2019-03-23T14:20:30.854Z,21.27
2019-03-23T14:23:02.605Z,21.43
2019-03-23T14:25:29.743Z,20.97
2019-03-23T14:27:57.646Z,21.37
2019-03-23T14:30:53.190Z,22.80
2019-03-23T14:33:18.717Z,22.40
2019-03-23T14:35:53.805Z,24.33
2019-03-23T14:38:21.205Z,24.73
2019-03-23T14:40:49.069Z,24.03
2019-03-23T14:43:16.564Z,25.53
2019-03-23T14:45:44.172Z,24.63
2019-03-23T14:48:11.714Z,24.80
2019-03-23T14:50:39.174Z,26.47
2019-03-23T14:53:07.442Z,24.73
2019-03-23T14:55:35.098Z,21.80
2019-03-23T14:58:04.761Z,22.13
2019-03-23T15:00:33.049Z,21.53
2019-03-23T15:03:02.670Z,22.90
2019-03-23T15:05:30.642Z,24.07
2019-03-23T15:07:58.651Z,23.97
2019-03-23T15:10:26.556Z,28.10
2019-03-23T15:12:55.751Z,34.57
2019-03-23T15:15:23.192Z,34.97
2019-03-23T15:17:53.757Z,37.30
2019-03-23T15:20:21.382Z,45.10
2019-03-23T15:22:49.008Z,46.13
2019-03-23T15:25:17.008Z,45.30
2019-03-23T15:27:44.649Z,43.73
2019-03-23T15:30:12.420Z,44.43
2019-03-23T15:32:40.955Z,44.30
2019-03-23T15:35:08.376Z,45.17
2019-03-23T15:37:36.204Z,43.13
2019-03-23T15:40:04.339Z,43.00
2019-03-23T15:42:32.318Z,41.43
2019-03-23T15:45:00.305Z,43.00
2019-03-23T15:47:28.347Z,44.10
2019-03-23T15:49:56.266Z,45.83
2019-03-23T15:52:23.959Z,43.20
2019-03-23T15:54:52.257Z,42.53
2019-03-23T15:57:23.218Z,41.83
2019-03-23T15:59:52.154Z,42.07
2019-03-23T16:02:19.383Z,42.70
2019-03-23T16:04:46.730Z,43.33
2019-03-23T16:07:14.214Z,41.90
2019-03-23T16:09:41.646Z,42.27
2019-03-23T16:12:09.006Z,43.20
2019-03-23T16:14:36.096Z,42.80
2019-03-23T16:17:03.822Z,41.80
2019-03-23T16:19:32.153Z,41.47
2019-03-23T16:21:59.941Z,41.00
2019-03-23T16:24:27.050Z,42.80
2019-03-23T16:26:54.979Z,43.63
2019-03-23T16:29:25.570Z,42.50
2019-03-23T16:31:53.291Z,42.50
2019-03-23T16:34:20.548Z,44.63
2019-03-23T16:36:47.597Z,41.90
2019-03-23T16:39:15.133Z,43.33
2019-03-23T16:41:47.820Z,41.67
2019-03-23T16:44:15.024Z,41.70
2019-03-23T16:46:42.236Z,42.50
2019-03-23T16:49:09.891Z,46.10
2019-03-23T16:51:36.963Z,43.60
2019-03-23T16:54:05.251Z,42.30
2019-03-23T16:56:32.411Z,41.97
2019-03-23T16:58:59.626Z,40.67
2019-03-23T17:01:26.763Z,41.60
2019-03-23T17:03:53.992Z,39.30
2019-03-23T17:06:21.595Z,37.30
2019-03-23T17:08:48.827Z,35.90
2019-03-23T17:11:18.258Z,36.07
2019-03-23T17:13:45.454Z,36.47
2019-03-23T17:16:12.687Z,36.50
2019-03-23T17:18:45.032Z,36.20
2019-03-23T17:21:12.121Z,35.43
2019-03-23T17:23:39.313Z,33.40
2019-03-23T17:26:06.589Z,33.80
2019-03-23T17:28:33.699Z,32.63
2019-03-23T17:31:00.808Z,30.33
2019-03-23T17:33:28.249Z,30.63
2019-03-23T17:36:03.521Z,28.10
2019-03-23T17:38:30.687Z,29.33
2019-03-23T17:40:57.805Z,27.10
2019-03-23T17:43:24.926Z,27.77
2019-03-23T17:45:52.007Z,27.33
2019-03-23T17:48:19.209Z,26.80
2019-03-23T17:50:46.416Z,26.20
2019-03-23T17:53:18.732Z,27.60
2019-03-23T17:55:45.853Z,31.87
2019-03-23T17:58:13.940Z,29.57
2019-03-23T18:00:41.365Z,28.30
2019-03-23T18:03:08.451Z,26.77
2019-03-23T18:05:38.490Z,28.13
2019-03-23T18:08:05.542Z,25.63
2019-03-23T18:10:34.170Z,28.50
2019-03-23T18:13:02.446Z,28.43
2019-03-23T18:15:29.610Z,27.07
2019-03-23T18:17:57.874Z,27.13
2019-03-23T18:20:25.025Z,27.77
2019-03-23T18:22:52.103Z,26.90
2019-03-23T18:25:19.390Z,26.20
2019-03-23T18:27:46.433Z,26.47
2019-03-23T18:30:30.265Z,25.53
2019-03-23T18:32:58.331Z,26.30
2019-03-23T18:35:25.470Z,25.47
2019-03-23T18:37:52.710Z,25.40
2019-03-23T18:40:19.802Z,24.80
2019-03-23T18:42:46.987Z,26.43
2019-03-23T18:45:14.939Z,23.40
2019-03-23T18:47:42.040Z,23.77
2019-03-23T18:50:10.312Z,23.57
2019-03-23T18:52:37.799Z,24.27
2019-03-23T18:55:05.273Z,22.63
2019-03-23T18:57:32.306Z,23.50
2019-03-23T18:59:59.411Z,22.73
2019-03-23T19:02:26.459Z,23.33
2019-03-23T19:04:53.540Z,24.10
2019-03-23T19:07:20.618Z,23.70
2019-03-23T19:09:47.711Z,23.47
2019-03-23T19:12:14.881Z,23.60
2019-03-23T19:14:42.054Z,24.23
2019-03-23T19:17:09.218Z,23.87
2019-03-23T19:19:37.725Z,24.60
2019-03-23T19:22:06.007Z,25.30
2019-03-23T19:24:52.032Z,23.87
2019-03-23T19:27:19.609Z,25.97
2019-03-23T19:29:46.790Z,24.93
2019-03-23T19:32:14.912Z,25.40
2019-03-23T19:34:42.706Z,23.93
2019-03-23T19:37:09.787Z,25.20
2019-03-23T19:39:36.956Z,27.07
2019-03-23T19:42:04.230Z,24.67
2019-03-23T19:44:31.337Z,25.60
2019-03-23T19:46:58.767Z,26.00
2019-03-23T19:49:26.322Z,25.43
2019-03-23T19:51:53.801Z,26.57
2019-03-23T19:54:20.914Z,25.73
2019-03-23T19:56:48.285Z,25.67
2019-03-23T19:59:15.416Z,26.00
2019-03-23T20:01:42.753Z,27.20
2019-03-23T20:04:10.124Z,27.23
2019-03-23T20:06:38.146Z,29.27
2019-03-23T20:09:06.938Z,29.67
2019-03-23T20:11:35.111Z,29.30
2019-03-23T20:14:03.073Z,30.17
2019-03-23T20:16:31.399Z,29.63
2019-03-23T20:18:58.625Z,29.30
2019-03-23T20:21:26.746Z,31.27
2019-03-23T20:23:58.162Z,29.83
2019-03-23T20:26:25.271Z,28.43
2019-03-23T20:28:52.347Z,29.73
2019-03-23T20:31:21.533Z,30.03
2019-03-23T20:33:48.631Z,27.60
2019-03-23T20:36:16.070Z,28.80
2019-03-23T20:38:43.425Z,30.17
2019-03-23T20:41:10.950Z,28.23
2019-03-23T20:43:38.073Z,29.60
2019-03-23T20:46:05.237Z,26.80
2019-03-23T20:48:36.385Z,26.43
2019-03-23T20:51:03.104Z,26.43
2019-03-23T20:53:30.672Z,28.00
2019-03-23T20:55:57.793Z,26.10
2019-03-23T20:58:25.304Z,26.00
2019-03-23T21:00:52.822Z,26.40
2019-03-23T21:03:21.253Z,25.17
2019-03-23T21:05:48.474Z,22.57
2019-03-23T21:08:16.035Z,23.40
2019-03-23T21:10:43.200Z,24.13
2019-03-23T21:13:10.670Z,23.70
2019-03-23T21:15:37.796Z,23.33
2019-03-23T21:18:05.620Z,23.03
2019-03-23T21:20:33.876Z,22.37
2019-03-23T21:23:00.982Z,20.83
2019-03-23T21:25:28.263Z,23.43
2019-03-23T21:27:58.074Z,24.20
2019-03-23T21:30:26.474Z,22.57
2019-03-23T21:32:53.521Z,21.50
2019-03-23T21:35:20.603Z,23.93
2019-03-23T21:37:47.644Z,24.40
2019-03-23T21:40:15.953Z,23.93
2019-03-23T21:42:43.195Z,23.93
2019-03-23T21:45:10.784Z,23.53
2019-03-23T21:47:38.914Z,23.33
2019-03-23T21:50:06.831Z,23.73
2019-03-23T21:52:33.866Z,24.53
2019-03-23T21:55:01.109Z,24.37
2019-03-23T21:57:28.120Z,25.13
2019-03-23T21:59:55.225Z,24.00
2019-03-23T22:02:22.263Z,23.47
2019-03-23T22:04:49.311Z,22.90
2019-03-23T22:07:16.409Z,22.57
2019-03-23T22:09:44.605Z,24.03
2019-03-23T22:12:17.572Z,23.73
2019-03-23T22:14:45.930Z,22.77
2019-03-23T22:17:14.070Z,23.73
2019-03-23T22:19:41.297Z,23.20
2019-03-23T22:22:09.435Z,23.53
2019-03-23T22:24:36.489Z,23.13
2019-03-23T22:27:03.907Z,24.97
2019-03-23T22:29:30.975Z,23.63
2019-03-23T22:31:58.574Z,24.37
2019-03-23T22:34:32.780Z,27.13
2019-03-23T22:37:30.411Z,24.43
2019-03-23T22:39:57.864Z,22.43
2019-03-23T22:42:26.590Z,23.67
2019-03-23T22:44:53.729Z,24.63
2019-03-23T22:47:20.856Z,23.00
2019-03-23T22:49:49.823Z,23.93
2019-03-23T22:52:16.905Z,25.17
2019-03-23T22:54:44.681Z,25.07
2019-03-23T22:57:11.817Z,26.13
2019-03-23T22:59:41.241Z,24.03
2019-03-23T23:02:08.654Z,23.33
2019-03-23T23:04:35.722Z,23.97
2019-03-23T23:07:02.968Z,24.00
2019-03-23T23:09:30.145Z,23.87
2019-03-23T23:11:57.825Z,24.63
2019-03-23T23:14:25.267Z,27.20
2019-03-23T23:16:53.163Z,27.73
2019-03-23T23:19:22.808Z,27.57
2019-03-23T23:21:50.233Z,26.40
2019-03-23T23:24:20.332Z,26.80
2019-03-23T23:26:47.932Z,27.27
2019-03-23T23:29:15.293Z,29.00
2019-03-23T23:31:42.406Z,28.60
2019-03-23T23:34:11.166Z,30.20
2019-03-23T23:36:38.642Z,28.07
2019-03-23T23:39:06.382Z,28.83
2019-03-23T23:41:33.450Z,30.93
2019-03-23T23:44:00.829Z,29.20
2019-03-23T23:46:28.250Z,30.87
2019-03-23T23:49:00.930Z,31.33
2019-03-23T23:51:28.160Z,28.23
2019-03-23T23:54:05.605Z,29.23
2019-03-23T23:56:32.663Z,28.90
2019-03-23T23:59:02.647Z,31.07
